Franklin, WI

8:24 PM CDT on March 26, 2017 (GMT -0500)
Mission Hills | | Change Station
Active Advisory: Special Statement

Elev 794 ft 42.90 °N, 88.05 °W | Updated 28 seconds ago

Overcast
Overcast
45.2 °F
Feels Like 45 °F
N
0.0
Wind Variable Wind from SSE

Today
High -- | Low -- °F
--% Chance of Precip.
Yesterday
High -- | Low -- °F
Precip. -- in
Pressure 29.87 in
Visibility 7.0 miles
Clouds Overcast 600 ft
Windchill 45 °F
Dew Point 43 °F
Humidity 91%
Rainfall 0.68 in
Snow Depth Not available.
6:44 AM 7:11 PM
Waning Crescent, 2% visible
METAR KMKE 270052Z 02004KT 7SM OVC006 06/04 A2985 RMK AO2 SLP115 T00560039
Pressure 29.87 in
Visibility 7.0 miles
Clouds Overcast 600 ft
Windchill 45 °F
Dew Point 43 °F
Humidity 91%
Rainfall 0.68 in
Snow Depth Not available.
6:44 AM 7:11 PM
Waning Crescent, 2% visible
METAR KMKE 270052Z 02004KT 7SM OVC006 06/04 A2985 RMK AO2 SLP115 T00560039

Get Your Daily Forecast Email!

Thanks for signing up!

Be on the lookout for a verification email in your inbox.

You'll start receiving severe weather alerts in your inbox..

×

10-Day Weather Forecast

Almanac

Astronomy

Mar. 26, 2017 Rise Set
Actual Time
Civil Twilight
Nautical Twilight
Astronomical Twilight
Moon
Length of Visible Light
Length of Day
Tomorrow will be .
, % of the Moon is Illuminated

Today's Extremes

State Highs State Lows

Community

WunderPhotos

Upload Photos

1,962,540 photos uploaded!

WunderBlog® & News

Nearby

Air Quality

  Air Quality AQ Index Pollutant
Not available.

Snow Depth

Station Depth Elevation

Earthquake Activity

City Distance Mag. Time & Date
Minimum magnitude displayed is 2.5.

Earthquake Activity

City Distance Mag. Time & Date
Minimum magnitude displayed is 2.5.

Coastal Water Temperatures

Place Temperature

Stations

Nearby Weather Stations

Station Location Temp. Windchill Dew Point Humidity Wind Precip. Elev Updated Type
                   

Watches & Warnings

Special Statement
Issued: 2:33 PM CDT Mar. 26, 2017 – National Weather Service

... More dense fog possible tonight...

Light winds and high relative humidity will result in widespread
fog across south central and southeast Wisconsin tonight.
Visibilities will likely lower to between one half mile to 2 miles
during the night.

The fog may become dense for a time, dropping visibilities to one
quarter mile or less. Southeast Wisconsin will be the most
susceptible to the low visibilities as the center of a low
pressure system will be passing across this area during the late
afternoon and evening.

Night-time travelers will need to slow down and drive with
caution should they drive into an area of dense fog.

Mbk